Time;durP1;ratioP1;P1;durP2;ratioP2;P2;SDS_P1;SDS_P2;PMS_P1;PMS_P2;Temp;Humidity;BMP_temperature;BMP_pressure;BME280_temperature;BME280_humidity;BME280_pressure;Samples;Min_cycle;Max_cycle;Signal;HPM_P1;HPM_P2
2022/11/26 00:01:15;;;;;;;7.97;6.45;;;;;;;1.62;100.00;100019.76;1696599;84;20951;-71
2022/11/26 00:03:41;;;;;;;10.63;6.20;;;;;;;1.61;100.00;100015.45;1686647;84;25582;-71
2022/11/26 00:06:29;;;;;;;11.63;6.92;;;;;;;1.63;100.00;100011.30;1696817;84;21609;-69
2022/11/26 00:08:58;;;;;;;17.27;7.47;;;;;;;1.60;100.00;100013.80;1695909;84;20955;-70
2022/11/26 00:11:25;;;;;;;17.85;7.62;;;;;;;1.63;100.00;100015.28;1697632;84;20943;-70
2022/11/26 00:13:51;;;;;;;11.60;6.08;;;;;;;1.67;100.00;100009.92;1679643;83;21010;-71
2022/11/26 00:16:18;;;;;;;19.17;8.25;;;;;;;1.69;100.00;100013.20;1661550;85;21050;-70
2022/11/26 00:18:44;;;;;;;12.07;6.15;;;;;;;1.65;100.00;100015.41;1683155;85;21535;-71
2022/11/26 00:21:23;;;;;;;8.50;5.45;;;;;;;1.63;100.00;100015.28;1683352;85;21153;-72
2022/11/26 00:23:51;;;;;;;13.00;6.45;;;;;;;1.61;100.00;100017.28;1683273;85;21051;-69
2022/11/26 00:26:21;;;;;;;15.75;7.80;;;;;;;1.56;100.00;100015.69;1669515;85;21059;-69
2022/11/26 00:28:55;;;;;;;13.35;6.62;;;;;;;1.55;100.00;100016.19;1682167;85;20960;-67
2022/11/26 00:31:24;;;;;;;22.98;8.15;;;;;;;1.56;100.00;100014.36;1649568;86;21052;-67
2022/11/26 00:33:50;;;;;;;14.98;9.08;;;;;;;1.49;100.00;100010.28;1641706;87;22205;-69
2022/11/26 00:36:25;;;;;;;11.80;6.78;;;;;;;1.49;100.00;100016.08;1657883;85;21493;-68
2022/11/26 00:39:11;;;;;;;15.48;6.95;;;;;;;1.49;100.00;100009.46;1661300;85;21003;-72
2022/11/26 00:41:38;;;;;;;16.50;9.05;;;;;;;1.50;100.00;100005.31;1655776;86;21072;-69
2022/11/26 00:44:23;;;;;;;31.52;18.77;;;;;;;1.51;100.00;100005.63;1660065;85;21059;-70
2022/11/26 00:46:50;;;;;;;34.67;20.00;;;;;;;1.46;100.00;100002.71;1673242;84;21720;-68
2022/11/26 00:49:17;;;;;;;27.50;19.02;;;;;;;1.44;100.00;100003.38;1670503;85;21087;-67
2022/11/26 00:51:45;;;;;;;11.25;9.15;;;;;;;1.49;100.00;100005.48;1669625;85;20924;-67
2022/11/26 00:54:14;;;;;;;10.05;6.80;;;;;;;1.55;100.00;100007.41;1669593;85;21071;-68
2022/11/26 00:56:41;;;;;;;10.05;6.37;;;;;;;1.59;100.00;100003.37;1669331;85;21079;-70
2022/11/26 00:59:13;;;;;;;9.70;6.78;;;;;;;1.56;100.00;100005.91;1669247;85;21427;-69
2022/11/26 01:01:40;;;;;;;7.58;5.50;;;;;;;1.59;100.00;100010.00;1670183;85;21035;-74
2022/11/26 01:04:06;;;;;;;7.22;5.40;;;;;;;1.64;100.00;100010.28;1704407;83;21094;-74
2022/11/26 01:06:36;;;;;;;12.85;8.05;;;;;;;1.68;100.00;100009.72;1691557;83;20997;-73
2022/11/26 01:09:04;;;;;;;6.87;6.03;;;;;;;1.72;100.00;100015.50;1714796;83;21518;-72
2022/11/26 01:11:32;;;;;;;8.83;5.80;;;;;;;1.80;100.00;100015.39;1716199;83;21549;-71
2022/11/26 01:13:59;;;;;;;7.50;5.60;;;;;;;1.80;100.00;100003.95;1716102;83;20942;-72
2022/11/26 01:16:29;;;;;;;7.67;5.60;;;;;;;1.74;100.00;100005.02;1693208;83;21005;-68
2022/11/26 01:18:57;;;;;;;6.72;5.08;;;;;;;1.68;100.00;100008.39;1715568;83;21522;-67
2022/11/26 01:21:26;;;;;;;7.12;5.67;;;;;;;1.70;100.00;100008.22;1716105;83;20994;-68
2022/11/26 01:23:52;;;;;;;7.05;6.03;;;;;;;1.69;100.00;100012.70;1716086;83;21013;-68
2022/11/26 01:26:26;;;;;;;6.60;5.37;;;;;;;1.70;100.00;100010.37;1715664;83;21487;-66
2022/11/26 01:28:53;;;;;;;6.03;5.20;;;;;;;1.73;100.00;100014.47;1716127;83;21057;-67
2022/11/26 01:31:22;;;;;;;6.92;5.03;;;;;;;1.64;100.00;100013.75;1715619;83;21529;-67
2022/11/26 01:33:51;;;;;;;5.85;5.15;;;;;;;1.61;100.00;100018.11;1716293;83;21045;-66
2022/11/26 01:36:28;;;;;;;5.28;4.25;;;;;;;1.65;100.00;100019.87;1713347;82;21441;-70
2022/11/26 01:38:56;;;;;;;8.35;4.95;;;;;;;1.66;100.00;100019.70;1688343;83;21045;-68
2022/11/26 01:41:34;;;;;;;4.00;3.60;;;;;;;1.72;100.00;100018.98;1717078;83;21120;-70
2022/11/26 01:44:01;;;;;;;10.75;6.12;;;;;;;1.78;100.00;100022.69;1688356;83;21058;-67
2022/11/26 01:46:29;;;;;;;9.73;5.75;;;;;;;1.80;100.00;100016.71;1715629;83;21005;-70
2022/11/26 01:49:17;;;;;;;10.80;5.65;;;;;;;1.78;100.00;100027.17;1715242;83;22126;-68
2022/11/26 01:51:45;;;;;;;7.33;5.05;;;;;;;1.72;100.00;100028.76;1617439;88;20985;-68
2022/11/26 01:54:11;;;;;;;6.47;4.05;;;;;;;1.67;100.00;100022.69;1685395;83;21032;-70
2022/11/26 01:56:45;;;;;;;9.00;5.58;;;;;;;1.65;100.00;100023.86;1715432;83;21072;-68
2022/11/26 01:59:30;;;;;;;6.55;4.53;;;;;;;1.64;100.00;100027.01;1715476;83;21022;-68
2022/11/26 02:01:58;;;;;;;14.65;6.35;;;;;;;1.64;100.00;100028.83;1716317;83;21052;-69
2022/11/26 02:04:28;;;;;;;15.98;6.20;;;;;;;1.69;100.00;100034.41;1716418;83;21479;-68
2022/11/26 02:06:55;;;;;;;10.78;6.45;;;;;;;1.72;100.00;100036.21;1715082;83;21014;-69
2022/11/26 02:09:23;;;;;;;12.03;5.70;;;;;;;1.63;100.00;100032.52;1715413;83;21013;-68
2022/11/26 02:11:50;;;;;;;12.43;6.17;;;;;;;1.58;100.00;100038.34;1715707;83;21032;-70
2022/11/26 02:14:25;;;;;;;5.47;4.55;;;;;;;1.60;100.00;100037.66;1717334;83;21084;-69
2022/11/26 02:17:14;;;;;;;3.55;3.25;;;;;;;1.60;100.00;100035.02;1715110;83;21085;-68
2022/11/26 02:20:18;;;;;;;4.30;3.92;;;;;;;1.58;100.00;100039.66;1704836;83;21011;-69
2022/11/26 02:23:26;;;;;;;4.37;3.98;;;;;;;1.54;100.00;100040.21;1708799;83;21537;-69
2022/11/26 02:26:29;;;;;;;4.85;4.37;;;;;;;1.44;100.00;100046.31;1713375;83;21062;-69
2022/11/26 02:29:30;;;;;;;5.12;4.35;;;;;;;1.41;100.00;100042.69;1712265;83;21533;-70
2022/11/26 02:32:10;;;;;;;4.35;3.95;;;;;;;1.43;100.00;100042.02;1687618;84;21489;-69
2022/11/26 02:34:45;;;;;;;4.97;4.12;;;;;;;1.49;100.00;100045.23;1687525;83;21557;-71
2022/11/26 02:37:19;;;;;;;5.55;4.90;;;;;;;1.49;100.00;100056.66;1715915;83;21108;-69
2022/11/26 02:39:46;;;;;;;4.40;3.58;;;;;;;1.53;100.00;100057.14;1715308;83;21490;-69
2022/11/26 02:42:31;;;;;;;6.33;5.10;;;;;;;1.50;100.00;100053.52;1717260;83;22007;-68
2022/11/26 02:45:05;;;;;;;5.22;4.72;;;;;;;1.50;100.00;100052.19;1712553;83;21006;-69
2022/11/26 02:47:33;;;;;;;5.72;4.97;;;;;;;1.46;100.00;100057.04;1710617;83;21622;-69
2022/11/26 02:50:03;;;;;;;4.95;4.50;;;;;;;1.45;100.00;100055.39;1689453;84;21042;-69
2022/11/26 02:52:30;;;;;;;4.30;3.77;;;;;;;1.49;100.00;100055.34;1677691;84;21145;-70
2022/11/26 02:54:57;;;;;;;3.85;3.55;;;;;;;1.52;100.00;100056.32;1673159;84;21599;-69
2022/11/26 02:57:25;;;;;;;5.75;4.72;;;;;;;1.58;100.00;100057.42;1684260;84;21571;-69
2022/11/26 02:59:52;;;;;;;5.28;4.50;;;;;;;1.54;100.00;100059.59;1685257;84;21078;-68
2022/11/26 03:02:33;;;;;;;4.78;3.95;;;;;;;1.51;100.00;100058.64;1697532;84;20971;-67
2022/11/26 03:05:01;;;;;;;4.03;3.55;;;;;;;1.50;100.00;100057.48;1697362;84;21093;-69
2022/11/26 03:07:28;;;;;;;5.15;4.00;;;;;;;1.49;100.00;100067.77;1696955;84;22115;-68
2022/11/26 03:09:58;;;;;;;5.83;5.30;;;;;;;1.47;100.00;100064.49;1697146;84;20991;-65
2022/11/26 03:12:25;;;;;;;6.50;5.25;;;;;;;1.51;100.00;100065.27;1697560;83;21078;-70
2022/11/26 03:14:51;;;;;;;6.45;3.80;;;;;;;1.53;100.00;100065.92;1695489;83;21046;-70
2022/11/26 03:17:17;;;;;;;18.20;8.05;;;;;;;1.47;100.00;100069.30;1696636;84;21042;-69
2022/11/26 03:19:44;;;;;;;29.72;12.03;;;;;;;1.43;100.00;100069.34;1696378;84;21376;-69
2022/11/26 03:22:11;;;;;;;18.80;9.98;;;;;;;1.46;100.00;100079.56;1697432;84;21117;-70
2022/11/26 03:24:38;;;;;;;24.00;12.47;;;;;;;1.50;100.00;100075.55;1697625;84;21030;-68
2022/11/26 03:27:05;;;;;;;16.52;9.85;;;;;;;1.58;100.00;100072.00;1697430;83;21109;-69
2022/11/26 03:29:31;;;;;;;18.95;9.00;;;;;;;1.62;100.00;100074.10;1697080;84;21062;-70
2022/11/26 03:31:58;;;;;;;18.62;8.63;;;;;;;1.61;100.00;100076.42;1697688;84;21097;-69
2022/11/26 03:34:25;;;;;;;14.28;9.90;;;;;;;1.55;100.00;100075.82;1697543;84;21055;-69
2022/11/26 03:36:51;;;;;;;10.80;7.33;;;;;;;1.55;100.00;100082.45;1669497;84;21046;-69
2022/11/26 03:39:18;;;;;;;6.50;5.80;;;;;;;1.58;100.00;100077.30;1696907;84;21102;-70
2022/11/26 03:41:44;;;;;;;7.05;5.50;;;;;;;1.64;100.00;100079.20;1697601;84;21075;-70
2022/11/26 03:44:11;;;;;;;9.90;6.12;;;;;;;1.70;100.00;100087.26;1695910;84;21542;-71
2022/11/26 03:46:38;;;;;;;7.12;4.40;;;;;;;1.77;100.00;100089.19;1696748;84;21069;-69
2022/11/26 03:49:05;;;;;;;6.92;5.97;;;;;;;1.80;100.00;100089.63;1697748;83;20916;-68
2022/11/26 03:51:32;;;;;;;9.43;7.28;;;;;;;1.79;100.00;100084.50;1697510;84;21054;-70
2022/11/26 03:53:59;;;;;;;4.90;3.70;;;;;;;1.77;100.00;100087.36;1698548;84;21023;-69
2022/11/26 03:56:26;;;;;;;10.53;6.08;;;;;;;1.74;100.00;100085.88;1698077;84;21139;-70
2022/11/26 03:58:52;;;;;;;5.35;4.08;;;;;;;1.76;100.00;100085.71;1697834;84;21018;-71
2022/11/26 04:01:19;;;;;;;7.85;4.90;;;;;;;1.75;100.00;100084.88;1692051;84;21007;-69
2022/11/26 04:03:46;;;;;;;11.68;4.65;;;;;;;1.77;100.00;100093.99;1695555;84;21522;-71
2022/11/26 04:06:13;;;;;;;7.47;5.92;;;;;;;1.77;100.00;100091.84;1698990;84;21118;-70
2022/11/26 04:08:39;;;;;;;5.72;4.78;;;;;;;1.68;100.00;100090.58;1698305;83;21320;-71
2022/11/26 04:11:07;;;;;;;8.75;6.33;;;;;;;1.64;100.00;100099.91;1698487;84;21642;-70
2022/11/26 04:13:34;;;;;;;6.75;4.80;;;;;;;1.68;100.00;100096.38;1698915;84;21050;-69
2022/11/26 04:16:01;;;;;;;6.22;5.47;;;;;;;1.77;100.00;100102.45;1698842;84;21050;-72
2022/11/26 04:18:27;;;;;;;6.50;5.62;;;;;;;1.77;100.00;100103.27;1696702;84;21125;-72
2022/11/26 04:20:55;;;;;;;6.72;5.90;;;;;;;1.78;100.00;100102.23;1670247;85;22156;-71
2022/11/26 04:23:21;;;;;;;7.42;6.58;;;;;;;1.80;100.00;100108.70;1689323;84;21562;-69
2022/11/26 04:25:47;;;;;;;7.95;6.20;;;;;;;1.86;100.00;100110.12;1698760;84;22312;-71
2022/11/26 04:28:14;;;;;;;9.38;7.17;;;;;;;1.91;100.00;100109.57;1697952;84;21139;-72
2022/11/26 04:30:41;;;;;;;11.33;8.60;;;;;;;1.91;100.00;100110.40;1670317;84;21057;-70
2022/11/26 04:33:07;;;;;;;6.08;5.28;;;;;;;1.91;100.00;100110.90;1698531;84;21427;-69
2022/11/26 04:35:34;;;;;;;7.35;6.42;;;;;;;1.94;100.00;100109.19;1698696;84;21014;-71
2022/11/26 04:38:00;;;;;;;8.75;7.45;;;;;;;1.99;100.00;100112.95;1697959;84;21078;-70
2022/11/26 04:40:27;;;;;;;7.80;6.70;;;;;;;2.00;100.00;100111.13;1697277;84;21022;-70
2022/11/26 04:42:53;;;;;;;8.58;7.05;;;;;;;1.98;100.00;100115.27;1652250;84;21145;-71
2022/11/26 04:45:20;;;;;;;9.00;6.70;;;;;;;1.95;100.00;100112.17;1698526;84;21072;-70
2022/11/26 04:47:47;;;;;;;10.63;8.40;;;;;;;1.92;100.00;100109.90;1696653;84;21067;-71
2022/11/26 04:50:13;;;;;;;10.78;8.25;;;;;;;1.86;100.00;100103.99;1682742;85;21043;-70
2022/11/26 04:52:39;;;;;;;10.20;9.10;;;;;;;1.85;100.00;100109.80;1683038;85;21062;-70
2022/11/26 04:55:07;;;;;;;9.65;8.65;;;;;;;1.85;100.00;100111.13;1683105;85;21064;-68
2022/11/26 11:13:48;;;;;;;11.13;8.93;;;;;;;1.57;100.00;100369.39;1888734;76;22577;-69
2022/11/26 11:16:31;;;;;;;12.98;8.90;;;;;;;1.60;100.00;100379.63;1859734;77;20959;-70
2022/11/26 11:19:00;;;;;;;10.78;8.08;;;;;;;1.70;100.00;100386.03;1859699;77;21102;-70
2022/11/26 11:21:33;;;;;;;8.25;6.75;;;;;;;1.80;100.00;100381.33;1861643;77;21041;-68
2022/11/26 11:24:16;;;;;;;11.60;8.78;;;;;;;1.85;100.00;100385.61;1859831;77;21464;-70
2022/11/26 11:26:45;;;;;;;10.82;6.83;;;;;;;1.94;100.00;100383.22;1858979;77;21002;-72
2022/11/26 11:29:32;;;;;;;9.78;7.50;;;;;;;1.99;100.00;100376.05;1857862;77;20974;-70
2022/11/26 11:32:03;;;;;;;8.93;6.85;;;;;;;2.06;100.00;100387.62;1841156;77;21185;-70
2022/11/26 11:34:38;;;;;;;9.95;7.22;;;;;;;2.11;100.00;100386.05;1850518;77;20920;-72
2022/11/26 11:37:16;;;;;;;9.63;6.53;;;;;;;2.14;100.00;100392.86;1824214;77;20997;-73
2022/11/26 11:39:42;;;;;;;6.65;5.60;;;;;;;2.16;100.00;100390.83;1848737;77;20994;-74
2022/11/26 11:42:29;;;;;;;8.88;5.47;;;;;;;2.18;100.00;100386.18;1857112;77;21058;-66
2022/11/26 11:44:56;;;;;;;6.92;4.95;;;;;;;2.21;100.00;100395.63;1849583;77;21217;-66
2022/11/26 11:47:42;;;;;;;6.42;5.20;;;;;;;2.21;100.00;100400.94;1839841;78;20961;-65
2022/11/26 11:50:35;;;;;;;9.10;5.97;;;;;;;2.22;100.00;100406.05;1856663;77;20985;-66
2022/11/26 11:53:16;;;;;;;6.37;4.97;;;;;;;2.21;100.00;100405.72;1850761;77;20963;-67
2022/11/26 11:56:13;;;;;;;7.62;5.67;;;;;;;2.21;100.00;100416.33;1825861;78;21030;-67
2022/11/26 11:59:00;;;;;;;4.58;4.17;;;;;;;2.19;100.00;100408.56;1836727;77;21142;-65
2022/11/26 12:02:01;;;;;;;6.92;5.20;;;;;;;2.21;100.00;100410.23;1844144;77;20993;-65
2022/11/26 12:04:42;;;;;;;6.05;5.35;;;;;;;2.19;100.00;100412.55;1728904;80;21579;-65
2022/11/26 12:07:23;;;;;;;6.22;4.60;;;;;;;2.25;100.00;100417.66;1826513;78;22213;-66
2022/11/26 12:10:08;;;;;;;6.95;4.85;;;;;;;2.30;100.00;100414.46;1811093;77;21006;-67
2022/11/26 12:12:38;;;;;;;6.40;5.58;;;;;;;2.32;100.00;100423.05;1766553;80;21863;-65
2022/11/26 12:15:27;;;;;;;8.70;5.35;;;;;;;2.31;100.00;100422.72;1757612;80;20948;-64
2022/11/26 12:18:16;;;;;;;6.97;6.17;;;;;;;2.30;100.00;100423.25;1746623;80;21019;-65
2022/11/26 12:20:56;;;;;;;5.40;4.62;;;;;;;2.28;100.00;100425.74;1758241;81;20893;-65
2022/11/26 12:23:46;;;;;;;7.65;6.00;;;;;;;2.29;100.00;100420.77;1752045;81;20979;-67
2022/11/26 12:26:28;;;;;;;7.20;5.20;;;;;;;2.28;100.00;100423.09;1745214;81;22223;-67
2022/11/26 12:29:13;;;;;;;5.92;4.95;;;;;;;2.28;100.00;100418.61;1752561;81;21485;-66
2022/11/26 12:31:49;;;;;;;6.97;6.10;;;;;;;2.31;100.00;100421.39;1714968;81;21001;-68
2022/11/26 12:34:38;;;;;;;6.33;5.42;;;;;;;2.30;100.00;100417.11;1783131;80;21004;-70
2022/11/26 12:37:19;;;;;;;5.90;5.00;;;;;;;2.25;100.00;100416.82;1753761;81;21078;-68
2022/11/26 12:40:31;;;;;;;6.87;5.80;;;;;;;2.19;100.00;100421.84;1747103;80;22018;-68
2022/11/26 12:43:27;;;;;;;12.65;9.23;;;;;;;2.19;100.00;100424.98;1752998;81;21543;-69
2022/11/26 12:46:07;;;;;;;7.78;5.55;;;;;;;2.21;100.00;100430.13;1741788;79;21055;-66
2022/11/26 12:48:51;;;;;;;9.08;6.65;;;;;;;2.24;100.00;100437.22;1767733;79;20984;-66
2022/11/26 12:51:41;;;;;;;8.90;6.92;;;;;;;2.28;100.00;100426.58;1779627;80;21129;-65
2022/11/26 12:54:19;;;;;;;7.70;6.33;;;;;;;2.30;100.00;100433.87;1780390;80;21211;-65
2022/11/26 12:57:22;;;;;;;6.83;6.10;;;;;;;2.29;100.00;100438.84;1780532;80;21528;-66
2022/11/26 13:00:12;;;;;;;9.20;6.03;;;;;;;2.28;100.00;100436.36;1768720;80;21611;-65
2022/11/26 13:02:43;;;;;;;6.92;5.72;;;;;;;2.23;100.00;100448.01;1779513;80;21680;-65
2022/11/26 13:05:23;;;;;;;9.53;6.75;;;;;;;2.22;100.00;100449.00;1780077;80;21563;-67
2022/11/26 13:08:32;;;;;;;7.83;5.70;;;;;;;2.23;100.00;100453.31;1778594;80;21155;-66
2022/11/26 13:11:30;;;;;;;7.67;6.55;;;;;;;2.27;100.00;100458.09;1742023;80;21504;-65
2022/11/26 13:14:15;;;;;;;7.08;5.42;;;;;;;2.29;100.00;100469.37;1780069;80;21541;-66
2022/11/26 13:17:04;;;;;;;5.67;4.95;;;;;;;2.29;100.00;100467.21;1779277;80;20928;-66
2022/11/26 13:19:48;;;;;;;6.10;5.00;;;;;;;2.26;100.00;100463.06;1778527;80;21000;-65
2022/11/26 13:22:40;;;;;;;5.12;4.08;;;;;;;2.23;100.00;100458.13;1775532;80;20944;-65
2022/11/26 13:25:24;;;;;;;5.87;5.12;;;;;;;2.19;100.00;100459.48;1660917;81;20976;-65
2022/11/26 13:28:24;;;;;;;6.03;5.22;;;;;;;2.17;100.00;100457.50;1755047;81;20976;-66
2022/11/26 13:30:59;;;;;;;6.80;5.97;;;;;;;2.14;100.00;100466.65;1759288;81;21535;-66
2022/11/26 13:33:43;;;;;;;5.05;4.28;;;;;;;2.15;100.00;100470.96;1747771;82;21047;-66
2022/11/26 13:36:54;;;;;;;5.15;4.65;;;;;;;2.21;100.00;100473.91;1762415;80;21235;-64
2022/11/26 13:39:26;;;;;;;5.47;4.37;;;;;;;2.19;100.00;100466.95;1776935;80;20945;-65
2022/11/26 13:42:11;;;;;;;5.12;4.53;;;;;;;2.15;100.00;100468.80;1775777;80;21485;-65
2022/11/26 13:44:58;;;;;;;5.08;4.65;;;;;;;2.10;100.00;100468.51;1775764;80;21079;-65
2022/11/26 13:47:54;;;;;;;4.15;3.72;;;;;;;2.05;100.00;100473.52;1731688;82;20955;-66
2022/11/26 13:50:44;;;;;;;3.77;3.42;;;;;;;2.01;100.00;100479.68;1731113;82;21320;-66
2022/11/26 13:53:18;;;;;;;3.30;3.00;;;;;;;2.02;100.00;100487.11;1731237;82;20963;-64
2022/11/26 13:55:49;;;;;;;4.47;3.58;;;;;;;2.02;100.00;100485.28;1740230;80;21003;-65
2022/11/26 13:58:32;;;;;;;4.60;3.37;;;;;;;2.03;100.00;100485.62;1761856;81;20978;-66
2022/11/26 14:01:26;;;;;;;4.12;3.35;;;;;;;2.03;100.00;100491.42;1761746;80;21480;-65
2022/11/26 14:03:53;;;;;;;4.35;3.92;;;;;;;2.00;100.00;100492.61;1761961;81;21780;-65
2022/11/26 14:06:20;;;;;;;8.13;7.33;;;;;;;1.99;100.00;100500.23;1763286;80;21004;-65
2022/11/26 14:08:51;;;;;;;4.87;4.12;;;;;;;1.99;100.00;100506.87;1774000;80;21537;-67
2022/11/26 14:11:49;;;;;;;5.80;5.22;;;;;;;1.99;100.00;100504.71;1788767;80;21555;-65
2022/11/26 14:14:29;;;;;;;7.67;6.55;;;;;;;1.97;100.00;100510.67;1757581;80;21011;-65
2022/11/26 14:17:11;;;;;;;7.30;6.58;;;;;;;1.94;100.00;100508.39;1776638;80;21434;-67
2022/11/26 14:19:57;;;;;;;8.08;5.95;;;;;;;1.96;100.00;100507.23;1764203;80;21079;-66
2022/11/26 14:22:33;;;;;;;8.90;6.95;;;;;;;1.97;100.00;100511.51;1750164;81;21595;-67
2022/11/26 14:25:02;;;;;;;8.73;7.22;;;;;;;1.96;100.00;100515.69;1764417;81;21313;-65
2022/11/26 14:27:42;;;;;;;5.80;5.30;;;;;;;1.93;100.00;100510.70;1763528;80;21097;-72
2022/11/26 14:30:22;;;;;;;6.47;5.87;;;;;;;1.92;100.00;100513.85;1764872;81;21003;-70
2022/11/26 14:33:01;;;;;;;7.00;5.65;;;;;;;1.94;100.00;100515.84;1741722;81;20983;-71
2022/11/26 14:35:35;;;;;;;5.58;4.97;;;;;;;1.97;100.00;100512.83;1764268;80;20979;-70
2022/11/26 14:38:04;;;;;;;6.97;5.33;;;;;;;2.01;100.00;100519.47;1781409;79;21498;-69
2022/11/26 20:08:10;;;;;;;8.60;7.70;;;;;;;1.01;100.00;100678.23;1870814;75;22588;-81
2022/11/26 20:10:39;;;;;;;8.35;7.53;;;;;;;1.05;100.00;100676.42;1787621;78;20915;-77
2022/11/26 20:13:06;;;;;;;7.53;6.62;;;;;;;1.13;100.00;100679.06;1739566;79;21297;-75
2022/11/26 20:15:41;;;;;;;9.00;8.13;;;;;;;1.18;100.00;100678.08;1813705;78;20901;-81
2022/11/26 20:18:19;;;;;;;8.00;7.17;;;;;;;1.23;100.00;100678.91;1758549;78;20996;-81
2022/11/26 20:21:03;;;;;;;8.18;7.37;;;;;;;1.28;100.00;100678.75;1762268;81;21518;-79
2022/11/26 20:23:30;;;;;;;8.08;6.90;;;;;;;1.33;100.00;100678.73;1848512;77;20935;-79
2022/11/26 20:25:58;;;;;;;6.30;5.60;;;;;;;1.39;100.00;100680.21;1765398;80;21854;-77
2022/11/26 20:28:25;;;;;;;6.65;5.65;;;;;;;1.46;100.00;100681.71;1823872;77;21036;-76
2022/11/26 20:30:51;;;;;;;7.58;6.80;;;;;;;1.52;100.00;100683.70;1808762;77;21034;-75
2022/11/26 20:33:21;;;;;;;6.30;5.70;;;;;;;1.56;100.00;100683.20;1828028;77;20976;-73
2022/11/26 20:35:50;;;;;;;6.65;6.08;;;;;;;1.61;100.00;100684.02;1816548;77;22191;-76
2022/11/26 20:38:16;;;;;;;6.15;5.45;;;;;;;1.64;100.00;100677.05;1788199;78;21614;-74
2022/11/26 20:40:44;;;;;;;7.30;6.28;;;;;;;1.66;100.00;100677.23;1816040;78;21594;-75
2022/11/26 20:43:11;;;;;;;7.47;6.67;;;;;;;1.63;100.00;100671.44;1816760;78;21000;-74
2022/11/26 20:45:38;;;;;;;8.70;7.10;;;;;;;1.60;100.00;100669.10;1782076;78;21028;-75
2022/11/26 20:48:05;;;;;;;7.12;6.53;;;;;;;1.57;100.00;100667.63;1836280;77;21056;-77
2022/11/26 20:50:33;;;;;;;7.67;6.58;;;;;;;1.57;100.00;100673.42;1745814;80;21162;-76
2022/11/26 20:53:01;;;;;;;6.87;5.92;;;;;;;1.60;100.00;100669.10;1777398;80;21627;-74
2022/11/26 20:55:28;;;;;;;7.37;6.67;;;;;;;1.65;100.00;100683.52;1745822;80;21722;-72
2022/11/26 20:57:55;;;;;;;7.30;5.70;;;;;;;1.68;100.00;100679.69;1772938;80;21670;-82
2022/11/26 21:00:22;;;;;;;10.38;9.35;;;;;;;1.71;100.00;100684.67;1806249;77;22254;-80
2022/11/26 21:02:51;;;;;;;7.08;6.37;;;;;;;1.70;100.00;100680.36;1806791;78;21761;-83
2022/11/26 21:05:21;;;;;;;6.55;5.58;;;;;;;1.70;100.00;100686.99;1809227;77;21095;-74
2022/11/26 21:07:50;;;;;;;6.22;5.67;;;;;;;1.70;100.00;100692.30;1786736;77;20955;-78
2022/11/26 21:10:17;;;;;;;6.92;5.35;;;;;;;1.72;100.00;100696.45;1844942;77;21039;-81
2022/11/26 21:12:44;;;;;;;6.20;5.58;;;;;;;1.72;100.00;100693.80;1838267;77;21546;-82
2022/11/26 21:15:15;;;;;;;6.67;5.40;;;;;;;1.75;100.00;100692.62;1843099;77;22172;-78
2022/11/26 21:17:43;;;;;;;6.75;6.15;;;;;;;1.79;100.00;100696.59;1836115;77;20980;-79
2022/11/26 21:20:16;;;;;;;6.25;5.67;;;;;;;1.80;100.00;100694.27;1842134;77;20947;-81
2022/11/26 21:22:44;;;;;;;5.75;5.12;;;;;;;1.78;100.00;100693.59;1840494;77;21003;-78
2022/11/26 21:25:15;;;;;;;6.80;6.17;;;;;;;1.76;100.00;100691.63;1841136;77;21031;-82
2022/11/26 21:27:40;;;;;;;6.92;6.25;;;;;;;1.74;100.00;100691.79;1844483;77;21333;-77
2022/11/26 21:30:09;;;;;;;5.28;4.80;;;;;;;1.79;100.00;100694.43;1760594;80;21018;-78
2022/11/26 21:32:36;;;;;;;5.95;5.45;;;;;;;1.79;100.00;100697.08;1762474;80;20972;-79
2022/11/26 21:35:03;;;;;;;7.42;6.67;;;;;;;1.78;100.00;100690.11;1769371;80;21016;-77
2022/11/26 21:37:31;;;;;;;6.83;6.12;;;;;;;1.75;100.00;100693.95;1766163;80;20972;-77
2022/11/26 21:39:58;;;;;;;5.95;5.33;;;;;;;1.76;100.00;100703.56;1758041;81;21309;-79
2022/11/26 21:42:29;;;;;;;8.00;6.45;;;;;;;1.78;100.00;100704.70;1733188;82;21043;-79
2022/11/26 21:44:55;;;;;;;5.08;4.65;;;;;;;1.76;100.00;100714.17;1700308;82;21110;-79
2022/11/26 21:47:24;;;;;;;6.25;5.53;;;;;;;1.78;100.00;100719.28;1711075;82;20974;-76
2022/11/26 21:49:52;;;;;;;6.47;5.87;;;;;;;1.80;100.00;100719.47;1742401;80;21091;-79
2022/11/26 21:52:21;;;;;;;6.08;5.40;;;;;;;1.82;100.00;100721.47;1799442;77;21706;-80
2022/11/26 21:54:50;;;;;;;6.97;5.33;;;;;;;1.84;100.00;100718.13;1844097;77;21087;-79
2022/11/26 21:57:18;;;;;;;5.53;5.03;;;;;;;1.85;100.00;100717.63;1839984;77;20963;-78
2022/11/26 21:59:46;;;;;;;6.15;5.55;;;;;;;1.80;100.00;100711.52;1758303;80;20977;-76
2022/11/26 22:02:13;;;;;;;5.08;4.58;;;;;;;1.75;100.00;100712.02;1756163;80;21014;-77
2022/11/26 22:04:39;;;;;;;5.30;4.80;;;;;;;1.71;100.00;100704.06;1766020;80;21249;-76
2022/11/26 22:07:08;;;;;;;5.53;4.87;;;;;;;1.69;100.00;100709.19;1734413;80;21057;-74
2022/11/26 22:09:35;;;;;;;5.70;5.17;;;;;;;1.67;100.00;100703.25;1752043;80;21034;-81
2022/11/26 22:12:02;;;;;;;4.70;4.30;;;;;;;1.70;100.00;100713.50;1816527;77;20954;-81
2022/11/26 22:14:28;;;;;;;5.12;4.70;;;;;;;1.72;100.00;100716.34;1793077;77;21012;-83
